Time;durP1;ratioP1;P1;durP2;ratioP2;P2;SDS_P1;SDS_P2;PMS_P1;PMS_P2;Temp;Humidity;BMP_temperature;BMP_pressure;BME280_temperature;BME280_humidity;BME280_pressure;Samples;Min_cycle;Max_cycle;Signal;HPM_P1;HPM_P2
2021/04/15 00:02:05;;;;;;;3.15;1.02;;;-3276.50;87.40;;;;;;4885789;29;20237;-85
2021/04/15 00:04:33;;;;;;;1.77;0.90;;;-3276.50;87.40;;;;;;4885077;29;20100;-86
2021/04/15 00:07:08;;;;;;;2.47;1.17;;;-3276.50;87.60;;;;;;4918994;29;20231;-87
2021/04/15 00:09:51;;;;;;;2.92;1.08;;;-3276.50;87.60;;;;;;4894808;29;20338;-86
2021/04/15 00:12:20;;;;;;;1.25;0.52;;;-3276.40;87.90;;;;;;4913610;29;20162;-85
2021/04/15 00:14:48;;;;;;;0.43;0.25;;;-3276.30;87.40;;;;;;4912320;29;20144;-86
2021/04/15 00:17:16;;;;;;;0.95;0.30;;;-3276.30;87.50;;;;;;4907974;29;20103;-88
2021/04/15 00:19:44;;;;;;;0.47;0.20;;;-3276.30;87.50;;;;;;4901116;29;20110;-86
2021/04/15 00:22:13;;;;;;;1.25;0.25;;;-3276.30;87.60;;;;;;4912581;29;20271;-87
2021/04/15 00:24:43;;;;;;;1.05;0.55;;;-3276.30;87.60;;;;;;4883062;29;20083;-84
2021/04/15 00:27:15;;;;;;;0.60;0.40;;;-3276.30;87.40;;;;;;4914977;29;20370;-87
2021/04/15 00:29:44;;;;;;;0.70;0.30;;;-3276.30;87.20;;;;;;4897145;29;20044;-86
2021/04/15 00:32:13;;;;;;;1.75;0.32;;;-3276.30;87.60;;;;;;4899635;29;20062;-86
2021/04/15 00:34:41;;;;;;;1.88;0.88;;;-3276.20;87.70;;;;;;4895861;29;20154;-87
2021/04/15 00:37:09;;;;;;;0.55;0.30;;;-3276.20;87.90;;;;;;4895947;29;20075;-86
2021/04/15 00:39:41;;;;;;;0.70;0.38;;;-3276.30;87.60;;;;;;4882957;29;20063;-87
2021/04/15 00:42:10;;;;;;;0.68;0.30;;;-3276.20;87.40;;;;;;4913741;29;20072;-84
2021/04/15 00:44:39;;;;;;;4.97;0.85;;;-3276.20;87.50;;;;;;4897433;29;20074;-86
2021/04/15 00:47:10;;;;;;;1.27;0.40;;;-3276.20;87.70;;;;;;4896586;29;20069;-87
2021/04/15 00:49:42;;;;;;;1.17;0.50;;;-3276.20;87.70;;;;;;4878739;29;20060;-85
2021/04/15 00:52:16;;;;;;;0.70;0.55;;;-3276.10;87.90;;;;;;4887210;29;20151;-87
2021/04/15 00:54:50;;;;;;;0.47;0.20;;;-3276.10;88.10;;;;;;4895849;29;20060;-86
2021/04/15 00:57:21;;;;;;;1.10;0.57;;;-3276.20;87.70;;;;;;4892706;29;20123;-84
2021/04/15 00:59:51;;;;;;;;;;;-3276.20;87.60;;;;;;4877457;29;20040;-85
2021/04/15 01:02:23;;;;;;;2.65;0.65;;;-3276.20;87.30;;;;;;4889711;29;19991;-84
2021/04/15 01:04:52;;;;;;;1.08;0.60;;;-3276.20;87.50;;;;;;4877304;29;20064;-86
2021/04/15 01:07:21;;;;;;;1.90;1.00;;;-3276.20;87.60;;;;;;4892676;29;20056;-83
2021/04/15 01:09:51;;;;;;;1.00;0.60;;;-3276.10;87.90;;;;;;4876816;29;20366;-85
2021/04/15 01:12:38;;;;;;;1.58;0.50;;;-3276.00;88.20;;;;;;4893117;29;20504;-85
2021/04/15 01:15:19;;;;;;;1.48;1.02;;;-3275.90;88.30;;;;;;4879849;29;20240;-87
2021/04/15 01:17:54;;;;;;;1.30;0.80;;;-3275.90;88.60;;;;;;4892221;29;20071;-86
2021/04/15 01:20:57;;;;;;;2.72;0.80;;;-3275.90;88.60;;;;;;4892143;29;20056;-86
2021/04/15 01:23:32;;;;;;;2.15;1.15;;;-3275.90;88.70;;;;;;4858800;29;20041;-88
2021/04/15 01:26:24;;;;;;;1.25;0.68;;;-3275.90;88.80;;;;;;4887721;29;20141;-84
2021/04/15 01:29:23;;;;;;;1.30;0.60;;;-3275.90;88.80;;;;;;4893530;29;20067;-88
2021/04/15 01:32:09;;;;;;;0.75;0.73;;;-3275.90;88.50;;;;;;4898170;29;20068;-86
2021/04/15 01:34:49;;;;;;;1.05;0.47;;;-3275.90;88.30;;;;;;4877013;29;20061;-84
2021/04/15 01:37:28;;;;;;;1.70;0.75;;;-3275.90;88.00;;;;;;4877867;29;20064;-86
2021/04/15 01:40:06;;;;;;;2.08;0.90;;;-3275.80;88.30;;;;;;4908687;29;20085;-84
2021/04/15 01:42:39;;;;;;;0.70;0.60;;;-3275.70;88.70;;;;;;4873875;29;20059;-87
2021/04/15 01:45:11;;;;;;;1.48;0.90;;;-3275.80;88.80;;;;;;4897232;29;20358;-86
2021/04/15 01:47:46;;;;;;;0.40;0.30;;;-3275.70;88.90;;;;;;4897982;29;20344;-85
2021/04/15 01:50:20;;;;;;;2.17;0.75;;;-3275.70;88.90;;;;;;4901559;29;20068;-86
2021/04/15 01:52:51;;;;;;;0.20;0.20;;;-3275.70;88.40;;;;;;4900632;29;20365;-86
2021/04/15 01:55:26;;;;;;;1.20;0.68;;;-3275.80;88.20;;;;;;4915378;29;20048;-86
2021/04/15 01:58:10;;;;;;;2.00;0.63;;;-3275.80;87.90;;;;;;4903604;29;20044;-85
2021/04/15 02:00:44;;;;;;;0.77;0.57;;;-3275.80;88.00;;;;;;4914217;29;20074;-86
2021/04/15 02:03:19;;;;;;;1.95;0.43;;;-3275.80;87.60;;;;;;4919628;29;20320;-84
2021/04/15 02:05:53;;;;;;;1.42;0.68;;;-3275.70;88.10;;;;;;4878784;29;20929;-87
2021/04/15 02:08:25;;;;;;;4.22;1.15;;;-3275.60;88.50;;;;;;4897669;29;20048;-85
2021/04/15 02:11:00;;;;;;;0.95;0.63;;;-3275.60;88.70;;;;;;4912864;29;20067;-86
2021/04/15 02:13:36;;;;;;;0.90;0.82;;;-3275.50;88.80;;;;;;4885601;29;20075;-86
2021/04/15 02:16:12;;;;;;;7.32;0.75;;;-3275.50;89.20;;;;;;4913783;29;20040;-87
2021/04/15 02:18:44;;;;;;;1.85;0.70;;;-3275.50;89.00;;;;;;4915950;29;20068;-88
2021/04/15 02:21:23;;;;;;;1.65;0.65;;;-3275.50;89.00;;;;;;4896999;29;20063;-83
2021/04/15 02:23:57;;;;;;;1.02;0.82;;;-3275.50;89.20;;;;;;4905083;29;20576;-85
2021/04/15 02:26:32;;;;;;;0.43;0.25;;;-3275.50;89.00;;;;;;4915782;29;20090;-86
2021/04/15 02:29:04;;;;;;;5.15;0.90;;;-3275.50;89.10;;;;;;4898340;29;20051;-85
2021/04/15 02:31:42;;;;;;;1.33;0.75;;;-3275.50;89.00;;;;;;4918610;29;20044;-85
2021/04/15 02:34:18;;;;;;;1.83;0.65;;;-3275.50;88.70;;;;;;4888536;29;20052;-84
2021/04/15 02:36:52;;;;;;;0.63;0.47;;;-3275.40;89.00;;;;;;4917445;29;20115;-84
2021/04/15 02:39:24;;;;;;;0.98;0.52;;;-3275.40;88.90;;;;;;4884719;29;20327;-86
2021/04/15 02:41:54;;;;;;;0.47;0.40;;;-3275.40;89.10;;;;;;4900991;29;20076;-84
2021/04/15 02:44:26;;;;;;;1.35;0.73;;;-3275.50;88.50;;;;;;4899261;29;20095;-85
2021/04/15 02:46:58;;;;;;;2.53;1.55;;;-3275.40;88.60;;;;;;4882969;29;20349;-86
2021/04/15 02:49:26;;;;;;;;;;;-3275.40;88.80;;;;;;4896943;29;20048;-87
2021/04/15 02:51:59;;;;;;;1.27;0.70;;;-3275.30;89.20;;;;;;4895649;29;19954;-84
2021/04/15 02:54:30;;;;;;;2.33;1.13;;;-3275.30;89.20;;;;;;4891681;29;20048;-87
2021/04/15 02:57:04;;;;;;;1.85;0.80;;;-3275.30;89.40;;;;;;4894358;29;20252;-85
2021/04/15 02:59:38;;;;;;;0.60;0.50;;;-3275.30;89.30;;;;;;4893330;29;20157;-86
2021/04/15 03:02:12;;;;;;;1.05;0.75;;;-3275.30;89.20;;;;;;4875353;29;20574;-85
2021/04/15 03:04:43;;;;;;;0.95;0.50;;;-3275.30;89.00;;;;;;4888656;29;20091;-88
2021/04/15 03:07:14;;;;;;;1.08;0.40;;;-3275.30;88.80;;;;;;4892181;29;20127;-87
2021/04/15 03:09:43;;;;;;;2.08;0.70;;;-3275.30;88.80;;;;;;4889244;29;20073;-88
2021/04/15 03:12:18;;;;;;;1.10;0.50;;;-3275.40;88.80;;;;;;4892693;29;20365;-86
2021/04/15 03:14:52;;;;;;;1.42;0.70;;;-3275.40;88.70;;;;;;4896024;29;20080;-86
2021/04/15 03:17:23;;;;;;;1.70;0.70;;;-3275.40;88.80;;;;;;4908063;29;20139;-86
2021/04/15 03:19:53;;;;;;;;;;;-3275.40;89.00;;;;;;4899249;29;20056;-85
2021/04/15 03:22:26;;;;;;;0.60;0.45;;;-3275.60;88.80;;;;;;4897828;29;19920;-85
2021/04/15 03:25:00;;;;;;;4.88;1.17;;;-3275.70;88.10;;;;;;4910353;29;20056;-85
2021/04/15 03:27:37;;;;;;;2.78;1.50;;;-3275.60;88.10;;;;;;4906345;29;20049;-87
2021/04/15 03:30:10;;;;;;;2.03;0.85;;;-3275.60;88.50;;;;;;4893860;29;20081;-84
2021/04/15 03:32:44;;;;;;;3.55;1.23;;;-3275.70;88.70;;;;;;4882607;29;20060;-88
2021/04/15 03:35:16;;;;;;;5.15;1.40;;;-3275.70;88.60;;;;;;4894478;29;20044;-87
2021/04/15 03:37:53;;;;;;;2.10;1.10;;;-3275.80;88.50;;;;;;4914811;29;20119;-87
2021/04/15 03:40:24;;;;;;;1.80;1.15;;;-3275.90;88.30;;;;;;4879768;29;20052;-88
2021/04/15 03:42:56;;;;;;;1.98;0.73;;;-3276.10;87.90;;;;;;4896760;29;20053;-86
2021/04/15 03:45:31;;;;;;;2.55;0.60;;;-3276.10;87.70;;;;;;4902954;29;20087;-87
2021/04/15 03:48:06;;;;;;;2.05;1.27;;;-3276.20;87.20;;;;;;4886587;29;20052;-87
2021/04/15 03:50:47;;;;;;;3.22;1.10;;;-3276.20;87.10;;;;;;4884607;29;20064;-86
2021/04/15 03:53:18;;;;;;;1.75;1.05;;;-3276.20;87.20;;;;;;4917811;29;20059;-85
2021/04/15 03:55:53;;;;;;;5.32;1.30;;;-3276.30;87.30;;;;;;4894140;29;20066;-85
2021/04/15 03:58:27;;;;;;;2.22;0.82;;;-3276.30;86.90;;;;;;4881134;29;20060;-86
2021/04/15 04:01:09;;;;;;;3.45;1.55;;;-3276.30;86.80;;;;;;4892639;29;20112;-86
2021/04/15 04:03:41;;;;;;;3.05;0.90;;;-3276.30;87.00;;;;;;4908947;29;20055;-86
2021/04/15 04:06:13;;;;;;;2.83;1.63;;;-3276.20;86.90;;;;;;4901521;29;20108;-84
2021/04/15 04:08:46;;;;;;;4.75;1.40;;;-3276.10;87.30;;;;;;4899462;29;20119;-86
2021/04/15 04:11:16;;;;;;;4.07;1.77;;;-3276.10;87.30;;;;;;4899036;29;20056;-85
2021/04/15 04:13:48;;;;;;;2.60;1.35;;;-3276.10;87.60;;;;;;4917467;29;20048;-85
2021/04/15 04:16:22;;;;;;;3.30;1.67;;;-3276.20;87.30;;;;;;4883491;29;20240;-84
2021/04/15 04:18:57;;;;;;;2.25;1.38;;;-3276.20;87.30;;;;;;4911277;29;20127;-88
2021/04/15 04:21:34;;;;;;;2.83;1.30;;;-3276.20;87.20;;;;;;4896982;29;20052;-84
2021/04/15 04:24:10;;;;;;;2.38;1.40;;;-3276.20;87.30;;;;;;4896188;29;20052;-84
2021/04/15 04:26:44;;;;;;;2.97;1.40;;;-3276.20;87.60;;;;;;4915154;29;20701;-87
2021/04/15 04:29:35;;;;;;;2.17;1.20;;;-3276.20;87.30;;;;;;4904205;29;20062;-86
2021/04/15 04:32:11;;;;;;;4.22;1.45;;;-3276.10;87.40;;;;;;4898610;29;20063;-87
2021/04/15 04:34:41;;;;;;;5.55;2.05;;;-3276.10;87.50;;;;;;4899073;29;20052;-85
2021/04/15 04:37:13;;;;;;;6.47;1.83;;;-3275.90;88.10;;;;;;4866230;29;20079;-86
2021/04/15 04:39:43;;;;;;;4.72;1.65;;;-3275.90;88.50;;;;;;4910743;29;20293;-87
2021/04/15 04:42:20;;;;;;;2.88;1.45;;;-3275.90;88.20;;;;;;4910306;29;20051;-85
2021/04/15 04:44:52;;;;;;;3.00;1.13;;;-3275.90;88.20;;;;;;4912802;29;20052;-85
2021/04/15 04:47:41;;;;;;;2.45;1.10;;;-3275.80;87.70;;;;;;4895922;29;20151;-86
2021/04/15 04:50:26;;;;;;;3.63;1.83;;;-3275.70;88.00;;;;;;4897092;29;20058;-87
2021/04/15 04:52:58;;;;;;;0.90;0.68;;;-3275.70;88.50;;;;;;4895322;29;20334;-84
2021/04/15 04:55:34;;;;;;;2.20;1.25;;;-3275.70;88.60;;;;;;4877582;29;20075;-86
2021/04/15 04:58:08;;;;;;;3.83;1.60;;;-3275.80;88.10;;;;;;4910213;29;20075;-85
2021/04/15 05:00:43;;;;;;;2.70;1.88;;;-3275.70;87.70;;;;;;4885183;29;20060;-87
2021/04/15 05:03:10;;;;;;;3.60;1.48;;;-3275.70;88.40;;;;;;4912392;29;20052;-87
2021/04/15 05:05:39;;;;;;;6.85;2.83;;;-3275.60;88.60;;;;;;4894652;29;20339;-85
2021/04/15 05:08:17;;;;;;;6.25;1.30;;;-3275.70;88.60;;;;;;4884481;29;20048;-86
2021/04/15 05:10:45;;;;;;;5.60;1.55;;;-3275.80;88.40;;;;;;4897013;29;20048;-84
2021/04/15 05:13:19;;;;;;;1.73;1.02;;;-3275.80;88.10;;;;;;4895742;29;20086;-85
2021/04/15 05:15:47;;;;;;;1.63;1.00;;;-3275.70;88.50;;;;;;4886255;29;20373;-84
2021/04/15 05:18:18;;;;;;;2.35;1.10;;;-3275.80;88.40;;;;;;4895471;29;20056;-86
2021/04/15 05:20:50;;;;;;;2.55;1.45;;;-3275.90;88.20;;;;;;4881964;29;20060;-85
2021/04/15 05:23:24;;;;;;;6.65;2.55;;;-3275.90;87.80;;;;;;4900067;29;20052;-84
2021/04/15 05:26:08;;;;;;;2.65;1.15;;;-3275.90;88.00;;;;;;4913226;29;20052;-85
2021/04/15 05:28:38;;;;;;;3.35;1.08;;;-3275.90;87.80;;;;;;4916431;29;20299;-86
2021/04/15 05:31:07;;;;;;;2.72;1.65;;;-3275.90;87.80;;;;;;4897146;29;20430;-86
2021/04/15 05:33:37;;;;;;;4.53;1.70;;;-3275.90;87.80;;;;;;4906217;29;20064;-89
2021/04/15 05:36:16;;;;;;;3.70;2.17;;;-3276.00;88.00;;;;;;4916954;29;20040;-85
2021/04/15 05:38:45;;;;;;;2.50;1.50;;;-3276.10;87.70;;;;;;4898665;29;20079;-85
2021/04/15 05:41:22;;;;;;;3.88;1.42;;;-3276.10;87.50;;;;;;4897822;29;20339;-85
2021/04/15 05:43:53;;;;;;;3.67;1.98;;;-3276.10;87.60;;;;;;4884174;29;20422;-86
2021/04/15 05:46:25;;;;;;;3.25;2.45;;;-3276.20;87.40;;;;;;4901593;29;20060;-86
2021/04/15 05:48:58;;;;;;;3.55;2.13;;;-3276.20;87.60;;;;;;4912714;29;20067;-84
2021/04/15 05:51:29;;;;;;;2.50;1.25;;;-3276.30;87.60;;;;;;4882232;29;20150;-85
2021/04/15 05:54:04;;;;;;;4.22;1.90;;;-3276.30;86.80;;;;;;4885637;29;20055;-83
2021/04/15 05:56:39;;;;;;;3.03;1.30;;;-3276.40;87.00;;;;;;4901056;29;20052;-87
2021/04/15 05:59:17;;;;;;;4.88;2.40;;;-3276.50;87.30;;;;;;4901230;29;20052;-84
2021/04/15 06:01:49;;;;;;;6.57;1.85;;;-3276.60;86.70;;;;;;4881271;29;20061;-85
2021/04/15 06:04:26;;;;;;;3.67;1.77;;;-3276.70;86.50;;;;;;4901163;29;20131;-85
2021/04/15 06:06:56;;;;;;;7.20;1.90;;;0.00;86.20;;;;;;4904501;29;20234;-85
2021/04/15 06:09:23;;;;;;;5.32;2.47;;;0.00;86.00;;;;;;4920695;29;20068;-86
2021/04/15 06:12:00;;;;;;;4.00;1.92;;;0.20;85.80;;;;;;4889073;29;20061;-86
2021/04/15 06:14:38;;;;;;;5.13;2.33;;;0.30;85.50;;;;;;4904203;29;20075;-85
2021/04/15 06:17:23;;;;;;;9.07;3.17;;;0.40;85.60;;;;;;4889301;29;20228;-84
2021/04/15 06:19:58;;;;;;;5.95;2.35;;;0.60;85.40;;;;;;4899075;29;20115;-87
2021/04/15 06:22:30;;;;;;;7.57;4.00;;;0.80;84.90;;;;;;4904741;29;20080;-85
2021/04/15 06:25:03;;;;;;;8.00;2.92;;;1.00;84.60;;;;;;4912473;29;20052;-84
2021/04/15 06:27:33;;;;;;;5.13;2.60;;;1.20;84.10;;;;;;4920332;29;20067;-83
2021/04/15 06:30:10;;;;;;;7.90;3.30;;;1.40;83.40;;;;;;4910836;29;20100;-84
2021/04/15 06:32:44;;;;;;;5.93;2.95;;;1.60;82.80;;;;;;4916568;29;20048;-86
2021/04/15 06:35:19;;;;;;;4.95;3.05;;;1.70;82.50;;;;;;4900091;29;20127;-88
2021/04/15 06:37:51;;;;;;;6.10;3.17;;;1.70;82.30;;;;;;4918787;29;20056;-86
2021/04/15 06:41:06;;;;;;;5.95;2.70;;;1.90;82.00;;;;;;4905298;29;20056;-84
2021/04/15 06:44:20;;;;;;;15.25;3.45;;;2.10;81.70;;;;;;4908755;29;20600;-85
2021/04/15 06:47:27;;;;;;;8.02;2.95;;;2.30;81.10;;;;;;4867689;29;20065;-86
2021/04/15 06:50:06;;;;;;;5.03;2.22;;;2.30;81.00;;;;;;4909253;29;20581;-84
2021/04/15 06:52:45;;;;;;;6.30;2.42;;;2.50;80.70;;;;;;4904987;29;20112;-85
2021/04/15 06:55:30;;;;;;;7.28;2.95;;;2.60;80.10;;;;;;4906298;29;20044;-84
2021/04/15 06:58:20;;;;;;;7.45;3.45;;;2.90;80.20;;;;;;4905933;29;20343;-86
2021/04/15 07:01:16;;;;;;;7.50;3.20;;;3.20;79.70;;;;;;4898769;29;20146;-83
2021/04/15 07:04:04;;;;;;;12.45;3.45;;;3.50;78.80;;;;;;4907963;29;20079;-86
2021/04/15 07:06:51;;;;;;;5.07;2.90;;;3.40;78.40;;;;;;4919514;29;20052;-85
2021/04/15 07:09:46;;;;;;;6.38;3.15;;;3.30;78.80;;;;;;4905015;29;20044;-85
2021/04/15 07:13:00;;;;;;;5.85;3.45;;;3.20;79.20;;;;;;4913720;29;20051;-86
2021/04/15 07:16:16;;;;;;;7.82;3.35;;;3.00;80.00;;;;;;4921494;29;20063;-85
2021/04/15 07:19:04;;;;;;;8.38;3.95;;;2.90;80.50;;;;;;4847156;29;20085;-86
2021/04/15 07:22:03;;;;;;;8.50;4.13;;;2.80;80.80;;;;;;4905231;29;20051;-85
2021/04/15 07:24:43;;;;;;;10.20;4.85;;;2.80;81.60;;;;;;4905505;29;20056;-83
2021/04/15 07:27:42;;;;;;;8.95;4.32;;;3.00;81.30;;;;;;4890841;29;20236;-85
2021/04/15 07:30:48;;;;;;;9.65;5.00;;;3.10;80.90;;;;;;4921387;29;20060;-85
2021/04/15 07:33:57;;;;;;;10.05;4.53;;;3.20;80.70;;;;;;4902400;29;20302;-86
2021/04/15 07:37:07;;;;;;;12.38;5.35;;;3.50;80.40;;;;;;4906606;29;20143;-85
2021/04/15 07:39:48;;;;;;;10.68;4.50;;;3.60;79.80;;;;;;4886582;29;20056;-86
2021/04/15 07:42:54;;;;;;;8.82;4.53;;;3.70;79.10;;;;;;4922223;29;20047;-87
2021/04/15 07:45:29;;;;;;;7.38;4.15;;;3.80;78.80;;;;;;4888509;29;20074;-84
2021/04/15 07:48:44;;;;;;;8.07;4.15;;;3.90;78.70;;;;;;4906794;29;20060;-85
2021/04/15 07:52:04;;;;;;;8.15;4.40;;;3.90;78.60;;;;;;4878167;29;20129;-88
2021/04/15 07:55:06;;;;;;;7.95;3.40;;;4.00;78.10;;;;;;4871891;29;20344;-84
2021/04/15 07:58:15;;;;;;;8.05;3.97;;;4.00;78.10;;;;;;4899031;29;20060;-86
2021/04/15 08:01:15;;;;;;;7.18;4.05;;;4.10;77.60;;;;;;4905341;29;20382;-87
2021/04/15 08:04:29;;;;;;;8.00;3.55;;;4.10;77.80;;;;;;4908495;29;20052;-86
2021/04/15 08:07:27;;;;;;;9.57;3.80;;;4.20;77.50;;;;;;4895437;29;20059;-87
2021/04/15 08:10:17;;;;;;;8.02;3.50;;;4.40;77.30;;;;;;4911402;29;20072;-86
2021/04/15 08:13:00;;;;;;;8.15;3.97;;;4.60;76.30;;;;;;4894649;29;20175;-86
2021/04/15 08:15:47;;;;;;;7.68;3.83;;;4.60;75.80;;;;;;4912753;29;20049;-85
2021/04/15 08:18:39;;;;;;;10.18;4.55;;;4.70;75.30;;;;;;4897642;29;20052;-85
2021/04/15 08:21:41;;;;;;;7.97;3.75;;;4.80;75.20;;;;;;4898412;29;20060;-86
2021/04/15 08:24:31;;;;;;;9.30;3.72;;;5.10;74.90;;;;;;4910026;29;20072;-88
2021/04/15 08:27:36;;;;;;;9.97;3.67;;;5.30;73.80;;;;;;4920488;29;20044;-87
2021/04/15 08:30:40;;;;;;;8.75;4.70;;;5.40;73.20;;;;;;4889862;29;20393;-87
2021/04/15 08:33:25;;;;;;;9.90;3.67;;;5.50;73.00;;;;;;4906771;29;20055;-87
2021/04/15 08:36:09;;;;;;;6.40;3.17;;;5.60;72.30;;;;;;4915129;29;20055;-86
2021/04/15 08:38:52;;;;;;;7.13;3.92;;;5.80;71.80;;;;;;4916402;29;20064;-86
2021/04/15 08:41:31;;;;;;;8.80;4.05;;;6.00;71.60;;;;;;4902804;29;20295;-85
2021/04/15 08:44:23;;;;;;;8.65;3.45;;;6.10;70.40;;;;;;4909751;29;20044;-85
2021/04/15 08:47:04;;;;;;;5.65;3.03;;;6.10;70.30;;;;;;4908885;29;20064;-86
2021/04/15 08:49:41;;;;;;;8.70;4.07;;;6.30;69.20;;;;;;4911890;29;20107;-86
2021/04/15 08:52:44;;;;;;;8.95;4.22;;;6.40;68.80;;;;;;4894807;29;20048;-86
2021/04/15 08:55:35;;;;;;;7.50;3.58;;;6.60;68.80;;;;;;4873933;29;20053;-89
2021/04/15 08:58:33;;;;;;;7.25;3.50;;;6.70;67.50;;;;;;4874432;29;20088;-86
2021/04/15 09:01:28;;;;;;;10.82;3.75;;;6.80;66.40;;;;;;4921657;29;20056;-89
2021/04/15 09:04:05;;;;;;;7.80;4.03;;;7.00;65.90;;;;;;4926137;29;20055;-86
2021/04/15 09:06:51;;;;;;;9.30;3.75;;;7.20;64.50;;;;;;4925223;29;20111;-86
2021/04/15 09:09:33;;;;;;;8.60;3.85;;;7.30;64.60;;;;;;4926210;29;20055;-87
2021/04/15 09:13:11;;;;;;;5.67;3.10;;;7.30;64.30;;;;;;1817219;29;10021928;-87
2021/04/15 09:15:56;;;;;;;8.15;3.72;;;7.60;62.30;;;;;;3882349;29;10001249;-88
2021/04/15 09:18:29;;;;;;;8.45;3.75;;;8.10;60.30;;;;;;4912630;29;20060;-87
2021/04/15 09:21:12;;;;;;;9.27;3.20;;;8.40;60.50;;;;;;4907469;29;20056;-87
2021/04/15 09:23:52;;;;;;;4.97;2.47;;;8.70;57.40;;;;;;4900950;29;21203;-85
2021/04/15 09:26:33;;;;;;;5.53;2.42;;;8.90;54.70;;;;;;4903388;29;20088;-85
2021/04/15 09:29:17;;;;;;;5.72;2.75;;;9.20;54.40;;;;;;4904150;29;20346;-86
2021/04/15 09:31:54;;;;;;;5.13;2.55;;;9.40;52.10;;;;;;4887686;29;20056;-87
2021/04/15 09:35:02;;;;;;;5.60;2.95;;;9.40;52.50;;;;;;4903827;29;20306;-88
2021/04/15 09:38:04;;;;;;;3.78;2.08;;;9.90;50.20;;;;;;4892524;29;20260;-88
2021/04/15 09:40:44;;;;;;;5.15;2.92;;;10.40;49.20;;;;;;4902671;29;20052;-86
2021/04/15 09:43:19;;;;;;;7.32;2.10;;;10.70;46.40;;;;;;4908285;29;20116;-88
2021/04/15 09:45:55;;;;;;;6.53;2.80;;;10.90;45.30;;;;;;4903538;29;20060;-89
2021/04/15 09:49:00;;;;;;;6.93;2.80;;;11.10;46.30;;;;;;4905663;29;20366;-89
2021/04/15 09:52:19;;;;;;;6.28;2.03;;;11.40;44.60;;;;;;4921500;29;20059;-87
2021/04/15 09:55:03;;;;;;;5.03;1.88;;;11.70;42.60;;;;;;4859023;29;20352;-86
2021/04/15 09:57:39;;;;;;;7.80;1.70;;;11.60;42.20;;;;;;4921184;29;20336;-89
2021/04/15 10:00:25;;;;;;;6.75;1.95;;;11.70;43.40;;;;;;4921544;29;20048;-87
2021/04/15 10:03:16;;;;;;;5.72;2.03;;;12.30;41.70;;;;;;4917914;29;20056;-88
2021/04/15 10:06:08;;;;;;;3.65;1.60;;;12.70;42.20;;;;;;4919968;29;20103;-88
2021/04/15 10:08:49;;;;;;;;;;;13.00;37.80;;;;;;4906764;29;20076;-86
2021/04/15 10:11:32;;;;;;;5.68;1.77;;;13.20;39.00;;;;;;4903955;29;19926;-86
2021/04/15 10:14:27;;;;;;;5.30;2.17;;;13.50;37.50;;;;;;4905875;29;20052;-87
2021/04/15 10:17:04;;;;;;;5.57;2.33;;;14.30;37.90;;;;;;4905310;29;20075;-85
2021/04/15 10:20:26;;;;;;;7.38;1.90;;;15.60;33.20;;;;;;4910552;29;20072;-86
2021/04/15 10:23:18;;;;;;;5.00;2.50;;;15.30;34.30;;;;;;4824365;29;20117;-86
2021/04/15 10:25:56;;;;;;;6.28;2.33;;;15.50;33.70;;;;;;4842204;29;20375;-87
2021/04/15 10:28:54;;;;;;;4.45;1.90;;;17.90;30.50;;;;;;4841078;29;20063;-86
2021/04/15 10:31:47;;;;;;;5.53;2.85;;;19.90;26.80;;;;;;4896172;29;20060;-86
2021/04/15 10:35:08;;;;;;;5.65;2.17;;;19.90;26.20;;;;;;4917868;29;20317;-82
2021/04/15 10:38:07;;;;;;;5.63;2.00;;;20.10;25.60;;;;;;4879923;29;20060;-86
2021/04/15 10:40:55;;;;;;;6.80;2.20;;;21.30;24.10;;;;;;4922248;29;20347;-87
2021/04/15 10:43:58;;;;;;;4.90;1.88;;;20.10;25.00;;;;;;4921822;29;20079;-86
2021/04/15 10:46:50;;;;;;;7.00;1.55;;;18.30;25.30;;;;;;4910339;29;20068;-86
2021/04/15 10:49:35;;;;;;;4.28;1.77;;;18.70;25.80;;;;;;4919096;29;20056;-86
2021/04/15 10:52:22;;;;;;;4.90;2.13;;;17.80;26.10;;;;;;4922976;29;20060;-84
2021/04/15 10:54:51;;;;;;;4.03;1.80;;;17.30;27.80;;;;;;4904453;29;20052;-86
2021/04/15 10:57:23;;;;;;;4.97;1.75;;;17.90;27.40;;;;;;4897119;29;20103;-87
2021/04/15 10:59:51;;;;;;;5.78;1.67;;;16.70;27.10;;;;;;4928304;29;20088;-89
2021/04/15 11:02:31;;;;;;;3.17;1.50;;;14.80;30.40;;;;;;4923159;29;20048;-87
2021/04/15 11:05:25;;;;;;;5.13;1.40;;;13.60;32.60;;;;;;4925597;29;20063;-87
2021/04/15 11:07:56;;;;;;;3.72;1.50;;;12.60;33.00;;;;;;4925263;29;20051;-87
2021/04/15 11:10:48;;;;;;;3.75;1.27;;;11.70;34.20;;;;;;4920107;29;20062;-85
2021/04/15 11:13:24;;;;;;;3.88;1.33;;;11.10;35.60;;;;;;4919292;29;20087;-86
2021/04/15 11:15:58;;;;;;;3.10;1.20;;;10.70;36.80;;;;;;4938018;29;20055;-88
2021/04/15 11:18:31;;;;;;;5.15;1.50;;;10.50;37.00;;;;;;4933741;29;20079;-87
2021/04/15 11:21:29;;;;;;;1.90;0.90;;;10.40;36.60;;;;;;4918512;29;20087;-86
2021/04/15 11:24:18;;;;;;;4.93;1.58;;;10.30;37.00;;;;;;4903458;29;20060;-87
2021/04/15 11:26:56;;;;;;;2.10;1.20;;;10.20;37.50;;;;;;4939959;23;20108;-65
2021/04/15 11:29:29;;;;;;;2.80;0.90;;;10.40;37.40;;;;;;4920479;29;20052;-65
2021/04/15 11:31:58;;;;;;;5.45;1.83;;;10.70;36.90;;;;;;4918822;29;20075;-65
2021/04/15 11:34:28;;;;;;;4.32;1.10;;;11.10;35.30;;;;;;4923213;29;20358;-65
2021/04/15 11:37:05;;;;;;;2.67;0.95;;;14.10;31.10;;;;;;4922198;29;20398;-65
2021/04/15 11:39:37;;;;;;;6.50;0.90;;;16.50;27.80;;;;;;4920733;29;20051;-66
2021/04/15 11:42:15;;;;;;;4.40;0.90;;;16.60;26.60;;;;;;4922791;29;20051;-65
2021/04/15 11:44:47;;;;;;;3.08;0.98;;;16.60;26.00;;;;;;4922372;29;20082;-64
2021/04/15 11:47:24;;;;;;;3.40;1.13;;;16.40;25.70;;;;;;4924084;29;20087;-64
2021/04/15 11:50:06;;;;;;;3.10;1.50;;;17.10;25.30;;;;;;4920085;29;20057;-64
2021/04/15 11:52:38;;;;;;;5.28;1.25;;;16.40;26.70;;;;;;4904566;29;20092;-65
2021/04/15 11:55:32;;;;;;;6.70;1.42;;;16.60;26.20;;;;;;4917304;29;20123;-65
2021/04/15 11:58:02;;;;;;;4.28;1.30;;;16.50;26.90;;;;;;4910003;29;20059;-65
2021/04/15 12:00:32;;;;;;;6.38;2.13;;;16.40;26.70;;;;;;4918260;29;20057;-65
2021/04/15 12:03:14;;;;;;;2.95;1.23;;;16.60;25.70;;;;;;4917960;29;20090;-65
2021/04/15 12:05:45;;;;;;;3.17;1.23;;;16.20;25.70;;;;;;4920415;29;20056;-65
2021/04/15 12:08:19;;;;;;;;;;;17.00;25.20;;;;;;4920057;29;20351;-65
2021/04/15 12:10:50;;;;;;;3.15;1.30;;;20.10;22.60;;;;;;4913439;29;19975;-65
2021/04/15 12:13:25;;;;;;;5.25;1.25;;;20.50;22.60;;;;;;4916727;29;20064;-66
2021/04/15 12:15:56;;;;;;;;;;;19.70;22.60;;;;;;4919052;29;20044;-64
2021/04/15 12:18:30;;;;;;;3.63;0.93;;;18.80;23.00;;;;;;4915034;29;19935;-65
2021/04/15 12:21:04;;;;;;;4.95;1.02;;;18.40;24.30;;;;;;4912931;29;20060;-65
2021/04/15 12:23:42;;;;;;;3.03;1.00;;;19.10;23.40;;;;;;4916100;29;20135;-64
2021/04/15 12:26:17;;;;;;;2.63;0.82;;;20.60;20.90;;;;;;4914489;29;20040;-65
2021/04/15 12:28:50;;;;;;;5.53;0.80;;;21.60;19.70;;;;;;4915987;29;20126;-64
2021/04/15 12:31:23;;;;;;;2.42;1.00;;;19.50;21.90;;;;;;4920111;29;20052;-64
2021/04/15 12:34:13;;;;;;;7.82;1.00;;;18.20;22.60;;;;;;4920535;29;20063;-64
2021/04/15 12:36:46;;;;;;;2.73;1.00;;;17.10;23.00;;;;;;4905666;29;20128;-65
2021/04/15 12:39:20;;;;;;;4.88;0.88;;;16.90;23.60;;;;;;4918122;29;20084;-64
2021/04/15 12:41:49;;;;;;;3.28;0.80;;;16.60;24.40;;;;;;4901368;29;20056;-64
2021/04/15 12:44:24;;;;;;;1.20;0.63;;;19.00;22.30;;;;;;4915876;29;20078;-65
2021/04/15 12:46:54;;;;;;;1.60;0.80;;;19.30;22.40;;;;;;4899034;29;20079;-65
2021/04/15 12:49:28;;;;;;;2.80;1.05;;;19.60;22.00;;;;;;4915819;29;20051;-64
2021/04/15 12:52:00;;;;;;;2.63;0.90;;;21.20;20.70;;;;;;4913655;29;20063;-64
2021/04/15 12:54:34;;;;;;;1.35;0.77;;;23.10;18.80;;;;;;4916080;29;20058;-65
2021/04/15 12:57:03;;;;;;;2.78;0.82;;;22.60;18.90;;;;;;4921842;29;20354;-65
2021/04/15 12:59:34;;;;;;;2.90;0.95;;;22.40;19.20;;;;;;4920815;29;20089;-65
2021/04/15 13:02:04;;;;;;;6.10;1.33;;;22.90;17.80;;;;;;4919470;29;20060;-65
2021/04/15 13:04:45;;;;;;;3.20;0.90;;;23.00;18.00;;;;;;4922860;29;20060;-65
2021/04/15 13:07:34;;;;;;;3.42;1.30;;;24.00;16.20;;;;;;4922291;29;20132;-65
2021/04/15 13:10:44;;;;;;;2.72;1.00;;;22.10;17.80;;;;;;4920371;29;20296;-65
2021/04/15 13:13:21;;;;;;;4.03;1.38;;;23.00;17.30;;;;;;4881311;29;20081;-65
2021/04/15 13:15:48;;;;;;;4.03;1.73;;;23.50;19.00;;;;;;4880869;29;20061;-65
2021/04/15 13:18:36;;;;;;;3.83;1.40;;;20.60;21.80;;;;;;4899047;29;20056;-65
2021/04/15 13:21:12;;;;;;;4.88;1.50;;;19.40;24.00;;;;;;4908558;29;20064;-64
2021/04/15 13:23:45;;;;;;;5.30;1.58;;;18.10;26.40;;;;;;4916239;29;20060;-65
2021/04/15 13:26:35;;;;;;;3.35;1.27;;;16.00;28.60;;;;;;4917448;29;20499;-65
2021/04/15 13:29:13;;;;;;;;;;;14.50;30.60;;;;;;4919323;29;20284;-65
2021/04/15 13:31:44;;;;;;;4.80;1.35;;;13.70;31.70;;;;;;4919809;29;20001;-65
2021/04/15 13:34:13;;;;;;;3.97;1.10;;;13.10;32.20;;;;;;4917834;29;20043;-64
2021/04/15 13:37:26;;;;;;;3.53;1.10;;;12.60;31.70;;;;;;4920823;29;20067;-65
2021/04/15 13:40:21;;;;;;;2.28;0.90;;;12.50;32.40;;;;;;4922873;29;20128;-65
2021/04/15 13:42:50;;;;;;;2.35;0.80;;;12.70;32.60;;;;;;4918827;29;20299;-65